createdAt,value
2018-01-27T00:01:29.017Z,34.78
2018-01-27T00:03:56.915Z,32.80
2018-01-27T00:06:24.467Z,30.12
2018-01-27T00:08:52.361Z,24.95
2018-01-27T00:11:19.842Z,24.02
2018-01-27T00:13:51.104Z,22.35
2018-01-27T00:16:18.588Z,20.88
2018-01-27T00:18:46.094Z,21.00
2018-01-27T00:21:13.580Z,18.20
2018-01-27T00:23:41.470Z,17.87
2018-01-27T00:26:09.444Z,20.33
2018-01-27T00:28:37.021Z,18.37
2018-01-27T00:31:04.904Z,17.87
2018-01-27T00:33:32.864Z,16.83
2018-01-27T00:36:00.444Z,16.05
2018-01-27T00:38:27.948Z,17.25
2018-01-27T00:40:55.432Z,15.90
2018-01-27T00:43:22.930Z,16.25
2018-01-27T00:45:50.415Z,15.80
2018-01-27T00:48:17.923Z,16.42
2018-01-27T00:50:45.414Z,17.05
2018-01-27T00:53:12.920Z,17.00
2018-01-27T00:55:40.424Z,18.05
2018-01-27T00:58:08.391Z,18.65
2018-01-27T01:00:35.958Z,19.27
2018-01-27T01:03:03.547Z,18.48
2018-01-27T01:05:31.044Z,18.50
2018-01-27T01:07:58.588Z,21.00
2018-01-27T01:10:26.561Z,19.00
2018-01-27T01:12:54.448Z,18.25
2018-01-27T01:15:22.345Z,18.15
2018-01-27T01:17:49.829Z,19.20
2018-01-27T01:20:17.367Z,19.62
2018-01-27T01:22:45.244Z,18.15
2018-01-27T01:25:12.744Z,16.70
2018-01-27T01:27:40.293Z,19.42
2018-01-27T01:30:08.183Z,20.80
2018-01-27T01:32:36.156Z,20.58
2018-01-27T01:35:04.056Z,18.67
2018-01-27T01:37:31.590Z,18.85
2018-01-27T01:39:59.093Z,20.88
2018-01-27T01:42:32.223Z,18.27
2018-01-27T01:44:59.720Z,19.58
2018-01-27T01:47:27.212Z,21.10
2018-01-27T01:49:54.710Z,22.30
2018-01-27T01:52:22.196Z,22.80
2018-01-27T01:54:49.700Z,22.42
2018-01-27T01:57:17.187Z,23.33
2018-01-27T01:59:44.688Z,22.52
2018-01-27T02:02:12.172Z,22.73
2018-01-27T02:04:39.705Z,23.55
2018-01-27T02:07:07.275Z,25.80
2018-01-27T02:09:34.772Z,22.37
2018-01-27T02:12:02.274Z,22.20
2018-01-27T02:14:29.754Z,21.92
2018-01-27T02:16:57.253Z,21.30
2018-01-27T02:19:24.735Z,21.52
2018-01-27T02:21:52.632Z,20.30
2018-01-27T02:24:20.517Z,20.20
2018-01-27T02:26:48.016Z,19.33
2018-01-27T02:29:15.505Z,18.65
2018-01-27T02:31:43.008Z,20.65
2018-01-27T02:34:10.888Z,18.20
2018-01-27T02:36:38.780Z,20.77
2018-01-27T02:39:06.655Z,19.75
2018-01-27T02:41:34.551Z,20.75
2018-01-27T02:44:02.022Z,20.35
2018-01-27T02:46:29.528Z,21.85
2018-01-27T02:48:57.006Z,22.02
2018-01-27T02:51:24.504Z,21.35
2018-01-27T02:53:51.988Z,20.00
2018-01-27T02:56:19.888Z,21.75
2018-01-27T02:58:47.367Z,18.75
2018-01-27T03:01:14.871Z,20.50
2018-01-27T03:03:42.371Z,19.73
2018-01-27T03:06:09.888Z,22.60
2018-01-27T03:08:37.369Z,22.08
2018-01-27T03:11:04.868Z,22.62
2018-01-27T03:13:32.355Z,23.15
2018-01-27T03:15:59.855Z,23.00
2018-01-27T03:18:27.339Z,22.37
2018-01-27T03:20:54.831Z,22.10
2018-01-27T03:23:22.316Z,21.85
2018-01-27T03:25:49.815Z,22.67
2018-01-27T03:28:17.692Z,21.42
2018-01-27T03:30:45.616Z,23.55
2018-01-27T03:33:13.151Z,21.85
2018-01-27T03:35:40.648Z,20.65
2018-01-27T03:38:08.147Z,19.85
2018-01-27T03:40:35.629Z,20.40
2018-01-27T03:43:03.128Z,20.75
2018-01-27T03:45:31.016Z,21.48
2018-01-27T03:47:58.516Z,24.05
2018-01-27T03:50:26.009Z,21.37
2018-01-27T03:52:53.508Z,23.00
2018-01-27T03:55:21.384Z,22.75
2018-01-27T03:57:48.889Z,22.75
2018-01-27T04:00:16.371Z,23.83
2018-01-27T04:02:43.872Z,22.67
2018-01-27T04:05:11.359Z,26.50
2018-01-27T04:07:38.865Z,23.52
2018-01-27T04:10:06.348Z,25.17
2018-01-27T04:12:33.847Z,24.75
2018-01-27T04:15:01.331Z,24.30
2018-01-27T04:17:28.831Z,24.12
2018-01-27T04:19:56.702Z,24.70
2018-01-27T04:22:24.595Z,24.20
2018-01-27T04:24:52.476Z,25.33
2018-01-27T04:27:20.399Z,24.98
2018-01-27T04:29:47.879Z,25.67
2018-01-27T04:32:15.389Z,22.40
2018-01-27T04:34:43.263Z,23.15
2018-01-27T04:37:11.161Z,23.33
2018-01-27T04:39:39.036Z,23.30
2018-01-27T04:42:07.003Z,25.05
2018-01-27T04:44:34.879Z,22.45
2018-01-27T04:47:02.382Z,23.42
2018-01-27T04:49:29.919Z,23.92
2018-01-27T04:51:57.420Z,23.50
2018-01-27T04:54:24.904Z,24.12
2018-01-27T04:56:52.394Z,23.62
2018-01-27T04:59:19.876Z,22.10
2018-01-27T05:01:47.351Z,23.15
2018-01-27T05:04:14.855Z,24.17
2018-01-27T05:06:42.829Z,23.85
2018-01-27T05:09:10.729Z,25.88
2018-01-27T05:11:38.212Z,25.55
2018-01-27T05:14:05.715Z,24.42
2018-01-27T05:16:33.197Z,26.50
2018-01-27T05:19:00.695Z,24.48
2018-01-27T05:21:28.572Z,24.02
2018-01-27T05:23:56.470Z,23.48
2018-01-27T05:26:23.946Z,24.27
2018-01-27T05:28:51.447Z,26.55
2018-01-27T05:31:18.936Z,25.05
2018-01-27T05:33:46.436Z,26.17
2018-01-27T05:36:14.319Z,26.55
2018-01-27T05:38:42.226Z,26.40
2018-01-27T05:41:09.704Z,26.90
2018-01-27T05:43:37.208Z,27.77
2018-01-27T05:46:04.692Z,26.30
2018-01-27T05:48:32.272Z,29.05
2018-01-27T05:50:59.759Z,27.37
2018-01-27T05:53:27.255Z,25.25
2018-01-27T05:55:54.735Z,24.48
2018-01-27T05:58:22.236Z,25.85
2018-01-27T06:00:49.715Z,29.15
2018-01-27T06:03:17.210Z,28.10
2018-01-27T06:05:45.087Z,28.85
2018-01-27T06:08:12.978Z,28.15
2018-01-27T06:10:40.454Z,28.25
2018-01-27T06:13:07.955Z,26.52
2018-01-27T06:15:35.448Z,29.08
2018-01-27T06:18:02.955Z,29.08
2018-01-27T06:20:30.440Z,27.98
2018-01-27T06:22:57.944Z,26.77
2018-01-27T06:25:25.432Z,24.83
2018-01-27T06:27:52.925Z,27.33
2018-01-27T06:30:20.824Z,27.37
2018-01-27T06:32:48.303Z,27.08
2018-01-27T06:35:15.843Z,26.58
2018-01-27T06:37:43.719Z,27.80
2018-01-27T06:40:11.224Z,28.12
2018-01-27T06:42:38.712Z,27.67
2018-01-27T06:45:06.202Z,28.70
2018-01-27T06:47:33.688Z,29.58
2018-01-27T06:50:01.182Z,27.48
2018-01-27T06:52:29.060Z,32.58
2018-01-27T06:54:56.956Z,31.35
2018-01-27T06:57:24.449Z,29.73
2018-01-27T06:59:51.960Z,29.30
2018-01-27T07:02:19.443Z,28.33
2018-01-27T07:04:46.948Z,32.13
2018-01-27T07:07:14.440Z,31.20
2018-01-27T07:09:41.950Z,30.80
2018-01-27T07:12:09.435Z,30.40
2018-01-27T07:14:37.330Z,30.10
2018-01-27T07:17:04.813Z,31.00
2018-01-27T07:19:32.348Z,28.95
2018-01-27T07:22:00.230Z,27.13
2018-01-27T07:24:28.118Z,28.87
2018-01-27T07:26:56.007Z,25.00
2018-01-27T07:29:23.511Z,28.40
2018-01-27T07:31:51.032Z,28.70
2018-01-27T07:34:19.015Z,30.37
2018-01-27T07:36:46.914Z,27.37
2018-01-27T07:39:14.454Z,29.52
2018-01-27T07:41:41.952Z,28.70
2018-01-27T07:44:09.917Z,32.42
2018-01-27T07:46:37.790Z,31.27
2018-01-27T07:49:05.359Z,32.67
2018-01-27T07:51:32.868Z,37.85
2018-01-27T07:54:00.357Z,41.60
2018-01-27T07:56:27.869Z,54.17
2018-01-27T07:58:55.356Z,53.70
2018-01-27T08:01:23.332Z,60.22
2018-01-27T08:03:51.302Z,55.33
2018-01-27T08:06:18.929Z,56.97
2018-01-27T08:08:46.864Z,55.30
2018-01-27T08:11:14.444Z,58.05
2018-01-27T08:13:42.415Z,54.70
2018-01-27T08:16:09.996Z,49.92
2018-01-27T08:18:38.085Z,51.20
2018-01-27T08:21:06.060Z,49.40
2018-01-27T08:23:34.140Z,51.55
2018-01-27T08:26:01.648Z,50.35
2018-01-27T08:28:29.130Z,49.72
2018-01-27T08:30:56.644Z,47.58
2018-01-27T08:33:24.128Z,52.42
2018-01-27T08:35:51.637Z,49.40
2018-01-27T08:38:19.128Z,50.25
2018-01-27T08:40:46.648Z,54.25
2018-01-27T08:43:14.531Z,57.00
2018-01-27T08:45:42.504Z,50.88
2018-01-27T08:48:10.392Z,50.70
2018-01-27T08:50:38.288Z,40.75
2018-01-27T08:53:05.766Z,46.35
2018-01-27T08:55:33.273Z,46.10
2018-01-27T08:58:00.763Z,51.63
2018-01-27T09:00:28.267Z,48.53
2018-01-27T09:02:55.756Z,51.05
2018-01-27T09:05:23.267Z,50.78
2018-01-27T09:07:50.755Z,51.92
2018-01-27T09:10:18.291Z,52.00
2018-01-27T09:12:45.770Z,51.50
2018-01-27T09:15:13.260Z,52.88
2018-01-27T09:17:40.836Z,50.35
2018-01-27T09:20:08.324Z,52.50
2018-01-27T09:22:36.298Z,51.72
2018-01-27T09:25:04.174Z,53.78
2018-01-27T09:27:32.073Z,51.65
2018-01-27T09:29:59.562Z,48.87
2018-01-27T09:32:27.068Z,50.92
2018-01-27T09:34:54.548Z,49.65
2018-01-27T09:37:22.138Z,52.38
2018-01-27T09:39:49.629Z,52.78
2018-01-27T09:42:17.122Z,52.55
2018-01-27T09:44:44.617Z,50.95
2018-01-27T09:47:12.120Z,52.80
2018-01-27T09:49:40.004Z,51.83
2018-01-27T09:52:07.901Z,51.75
2018-01-27T09:54:35.374Z,45.12
2018-01-27T09:57:02.881Z,45.60
2018-01-27T09:59:30.369Z,44.38
2018-01-27T10:01:57.972Z,41.63
2018-01-27T10:04:25.881Z,43.05
2018-01-27T10:06:53.411Z,46.17
2018-01-27T10:09:20.896Z,41.85
2018-01-27T10:11:48.793Z,45.40
2018-01-27T10:14:16.288Z,42.30
2018-01-27T10:16:43.788Z,39.65
2018-01-27T10:19:11.276Z,37.30
2018-01-27T10:21:39.172Z,38.35
2018-01-27T10:24:07.047Z,41.10
2018-01-27T10:26:34.944Z,37.20
2018-01-27T10:29:02.424Z,40.60
2018-01-27T10:31:29.956Z,41.47
2018-01-27T10:33:57.827Z,36.58
2018-01-27T10:36:25.329Z,38.20
2018-01-27T10:38:52.816Z,36.97
2018-01-27T10:41:20.313Z,37.00
2018-01-27T10:43:47.812Z,33.58
2018-01-27T10:46:15.300Z,36.33
2018-01-27T10:48:43.204Z,35.50
2018-01-27T10:51:10.727Z,36.45
2018-01-27T10:53:38.240Z,33.20
2018-01-27T10:56:05.790Z,34.72
2018-01-27T10:58:33.755Z,34.35
2018-01-27T11:01:01.240Z,33.90
2018-01-27T11:03:29.140Z,34.50
2018-01-27T11:05:56.620Z,30.70
2018-01-27T11:08:24.158Z,26.27
2018-01-27T11:10:52.035Z,26.87
2018-01-27T11:13:19.603Z,29.80
2018-01-27T11:15:47.588Z,32.65
2018-01-27T11:18:15.083Z,28.73
2018-01-27T11:20:42.564Z,35.75
2018-01-27T11:23:10.064Z,32.47
2018-01-27T11:25:37.546Z,30.20
2018-01-27T11:28:05.148Z,28.02
2018-01-27T11:30:33.021Z,29.52
2018-01-27T11:33:00.515Z,30.48
2018-01-27T11:35:28.020Z,27.33
2018-01-27T11:37:55.521Z,30.77
2018-01-27T11:40:23.004Z,22.17
2018-01-27T11:42:50.499Z,25.52
2018-01-27T11:45:17.979Z,26.85
2018-01-27T11:47:45.488Z,25.50
2018-01-27T11:50:12.968Z,28.90
2018-01-27T11:52:40.472Z,25.27
2018-01-27T11:55:08.348Z,30.20
2018-01-27T11:57:36.256Z,28.12
2018-01-27T12:00:03.740Z,29.60
2018-01-27T12:02:31.249Z,28.95
2018-01-27T12:04:58.828Z,28.62
2018-01-27T12:07:26.305Z,28.62
2018-01-27T12:09:54.196Z,29.25
2018-01-27T12:12:22.165Z,29.95
2018-01-27T12:14:50.065Z,31.10
2018-01-27T12:17:17.547Z,28.15
2018-01-27T12:19:45.048Z,28.80
2018-01-27T12:22:12.532Z,30.15
2018-01-27T12:24:40.033Z,29.70
2018-01-27T12:27:07.916Z,26.62
2018-01-27T12:29:35.875Z,27.52
2018-01-27T12:32:03.356Z,26.05
2018-01-27T12:34:30.847Z,25.12
2018-01-27T12:36:58.340Z,25.75
2018-01-27T12:39:25.839Z,26.85
2018-01-27T12:41:53.336Z,26.45
2018-01-27T12:44:20.845Z,27.05
2018-01-27T12:46:48.348Z,27.08
2018-01-27T12:49:15.839Z,26.40
2018-01-27T12:51:43.420Z,26.65
2018-01-27T12:54:10.923Z,28.65
2018-01-27T12:56:38.408Z,27.87
2018-01-27T12:59:05.911Z,27.60
2018-01-27T13:01:33.396Z,29.15
2018-01-27T13:04:00.902Z,24.90
2018-01-27T13:06:28.444Z,25.20
2018-01-27T13:08:55.935Z,25.65
2018-01-27T13:11:24.176Z,23.05
2018-01-27T13:13:51.722Z,26.20
2018-01-27T13:16:19.248Z,26.10
2018-01-27T13:18:46.747Z,27.15
2018-01-27T13:21:14.252Z,20.75
2018-01-27T13:23:41.786Z,20.15
2018-01-27T13:26:09.265Z,19.60
2018-01-27T13:28:36.747Z,19.80
2018-01-27T13:31:04.247Z,21.20
2018-01-27T13:33:31.740Z,19.00
2018-01-27T13:35:59.311Z,19.33
2018-01-27T13:38:26.879Z,21.60
2018-01-27T13:40:54.488Z,19.77
2018-01-27T13:43:21.884Z,20.30
2018-01-27T13:45:49.383Z,18.50
2018-01-27T13:48:16.873Z,22.73
2018-01-27T13:50:44.772Z,17.50
2018-01-27T13:53:12.252Z,19.50
2018-01-27T13:55:39.788Z,19.87
2018-01-27T13:58:07.272Z,18.23
2018-01-27T14:00:35.168Z,18.25
2018-01-27T14:03:02.643Z,16.98
2018-01-27T14:05:30.148Z,17.98
2018-01-27T14:07:57.632Z,19.30
2018-01-27T14:10:25.130Z,16.75
2018-01-27T14:12:53.008Z,17.25
2018-01-27T14:15:20.904Z,19.02
2018-01-27T14:17:48.374Z,20.65
2018-01-27T14:20:15.880Z,22.13
2018-01-27T14:22:43.384Z,20.48
2018-01-27T14:25:10.883Z,21.02
2018-01-27T14:27:38.788Z,20.65
2018-01-27T14:30:06.288Z,20.25
2018-01-27T14:32:33.770Z,20.55
2018-01-27T14:35:01.381Z,22.92
2018-01-27T14:37:28.866Z,21.45
2018-01-27T14:39:56.355Z,22.13
2018-01-27T14:42:23.850Z,20.02
2018-01-27T14:44:51.365Z,20.48
2018-01-27T14:47:18.849Z,21.02
2018-01-27T14:49:46.327Z,21.40
2018-01-27T14:52:13.823Z,21.70
2018-01-27T14:54:41.310Z,18.00
2018-01-27T14:57:08.814Z,21.98
2018-01-27T14:59:36.600Z,19.83
2018-01-27T15:02:04.103Z,20.83
2018-01-27T15:04:31.583Z,20.05
2018-01-27T15:06:59.075Z,21.23
2018-01-27T15:09:26.563Z,20.02
2018-01-27T15:11:54.065Z,20.92
2018-01-27T15:14:21.547Z,21.35
2018-01-27T15:16:49.046Z,20.10
2018-01-27T15:19:16.532Z,20.12
2018-01-27T15:21:44.027Z,20.58
2018-01-27T15:24:11.513Z,19.90
2018-01-27T15:26:39.021Z,19.92
2018-01-27T15:29:06.504Z,18.67
2018-01-27T15:31:34.004Z,18.95
2018-01-27T15:34:01.885Z,19.35
2018-01-27T15:36:29.843Z,18.27
2018-01-27T15:38:57.328Z,19.12
2018-01-27T15:41:26.146Z,19.58
2018-01-27T15:43:53.623Z,18.25
2018-01-27T15:46:21.114Z,18.87
2018-01-27T15:48:48.596Z,19.20
2018-01-27T15:51:16.190Z,17.75
2018-01-27T15:53:43.675Z,18.80
2018-01-27T15:56:11.582Z,17.45
2018-01-27T15:58:39.068Z,17.80
2018-01-27T16:01:06.576Z,19.95
2018-01-27T16:03:34.055Z,18.98
2018-01-27T16:06:01.581Z,19.70
2018-01-27T16:08:29.055Z,20.35
2018-01-27T16:10:56.542Z,18.40
2018-01-27T16:13:24.045Z,18.80
2018-01-27T16:15:51.524Z,19.12
2018-01-27T16:18:19.416Z,17.05
2018-01-27T16:20:47.374Z,17.17
2018-01-27T16:23:15.330Z,17.55
2018-01-27T16:25:42.819Z,17.65
2018-01-27T16:28:10.315Z,17.98
2018-01-27T16:30:38.280Z,16.75
2018-01-27T16:33:05.808Z,19.58
2018-01-27T16:35:33.311Z,18.70
2018-01-27T16:38:00.811Z,18.05
2018-01-27T16:40:28.776Z,19.20
2018-01-27T16:42:56.680Z,17.85
2018-01-27T16:45:24.215Z,17.48
2018-01-27T16:47:51.739Z,15.23
2018-01-27T16:50:19.263Z,16.10
2018-01-27T16:52:46.906Z,15.20
2018-01-27T16:55:14.387Z,17.65
2018-01-27T16:57:41.920Z,16.48
2018-01-27T17:00:09.408Z,16.73
2018-01-27T17:02:36.995Z,16.92
2018-01-27T17:05:04.476Z,15.82
2018-01-27T17:07:32.158Z,15.98
2018-01-27T17:09:59.639Z,18.00
2018-01-27T17:12:27.170Z,16.05
2018-01-27T17:14:54.666Z,15.27
2018-01-27T17:17:22.386Z,18.25
2018-01-27T17:19:49.872Z,15.10
2018-01-27T17:22:17.373Z,17.33
2018-01-27T17:24:44.884Z,15.75
2018-01-27T17:27:12.881Z,15.90
2018-01-27T17:29:40.431Z,14.80
2018-01-27T17:32:08.437Z,14.65
2018-01-27T17:34:35.971Z,13.98
2018-01-27T17:37:03.585Z,13.60
2018-01-27T17:39:31.227Z,13.77
2018-01-27T17:41:58.829Z,15.38
2018-01-27T17:44:26.364Z,14.25
2018-01-27T17:46:53.856Z,13.60
2018-01-27T17:49:21.745Z,13.25
2018-01-27T17:51:49.731Z,12.00
2018-01-27T17:54:17.256Z,13.02
2018-01-27T17:56:44.877Z,12.73
2018-01-27T17:59:12.416Z,14.85
2018-01-27T18:01:39.904Z,12.80
2018-01-27T18:04:07.429Z,13.38
2018-01-27T18:06:34.916Z,10.93
2018-01-27T18:09:02.448Z,11.63
2018-01-27T18:11:29.967Z,11.48
2018-01-27T18:13:57.471Z,10.85
2018-01-27T18:16:24.951Z,10.23
2018-01-27T18:18:52.442Z,9.63
2018-01-27T18:21:19.924Z,9.10
2018-01-27T18:23:47.436Z,10.02
2018-01-27T18:26:15.306Z,9.52
2018-01-27T18:28:42.885Z,8.88
2018-01-27T18:31:10.758Z,9.90
2018-01-27T18:33:38.260Z,10.13
2018-01-27T18:36:05.742Z,8.85
2018-01-27T18:38:33.351Z,9.05
2018-01-27T18:41:00.836Z,9.07
2018-01-27T18:43:28.412Z,9.27
2018-01-27T18:45:55.890Z,8.43
2018-01-27T18:48:23.868Z,8.48
2018-01-27T18:50:51.365Z,8.40
2018-01-27T18:53:19.033Z,8.05
2018-01-27T18:55:46.903Z,8.13
2018-01-27T18:58:14.861Z,7.70
2018-01-27T19:00:42.452Z,7.70
2018-01-27T19:03:10.428Z,7.60
2018-01-27T19:05:37.958Z,8.05
2018-01-27T19:08:05.441Z,8.68
2018-01-27T19:10:32.944Z,7.07
2018-01-27T19:13:00.507Z,6.95
2018-01-27T19:15:28.008Z,8.63
2018-01-27T19:17:55.886Z,9.20
2018-01-27T19:20:23.780Z,7.10
2018-01-27T19:22:51.404Z,8.50
2018-01-27T19:25:18.895Z,7.40
2018-01-27T19:27:46.791Z,8.65
2018-01-27T19:30:14.680Z,8.60
2018-01-27T19:32:42.205Z,8.30
2018-01-27T19:35:09.712Z,8.00
2018-01-27T19:37:37.676Z,7.32
2018-01-27T19:40:05.562Z,8.38
2018-01-27T19:42:33.057Z,8.18
2018-01-27T19:45:00.555Z,7.93
2018-01-27T19:47:28.056Z,8.05
2018-01-27T19:49:55.561Z,9.57
2018-01-27T19:52:23.098Z,8.90
2018-01-27T19:54:50.671Z,8.98
2018-01-27T19:57:18.187Z,8.35
2018-01-27T19:59:45.704Z,9.38
2018-01-27T20:02:13.252Z,8.75
2018-01-27T20:04:40.760Z,8.50
2018-01-27T20:07:08.453Z,8.43
2018-01-27T20:09:36.318Z,9.25
2018-01-27T20:12:03.951Z,9.45
2018-01-27T20:14:31.472Z,10.52
2018-01-27T20:16:59.403Z,10.02
2018-01-27T20:19:26.875Z,8.85
2018-01-27T20:21:54.624Z,10.10
2018-01-27T20:24:22.165Z,9.00
2018-01-27T20:26:49.743Z,9.13
2018-01-27T20:29:17.620Z,9.07
2018-01-27T20:31:45.601Z,9.32
2018-01-27T20:34:13.570Z,10.43
2018-01-27T20:36:41.076Z,9.98
2018-01-27T20:39:08.560Z,9.45
2018-01-27T20:41:36.077Z,9.43
2018-01-27T20:44:03.560Z,9.95
2018-01-27T20:46:31.265Z,9.45
2018-01-27T20:48:58.748Z,9.98
2018-01-27T20:51:26.432Z,9.15
2018-01-27T20:53:54.812Z,10.55
2018-01-27T20:56:22.332Z,10.25
2018-01-27T20:58:49.843Z,11.77
2018-01-27T21:01:17.372Z,11.07
2018-01-27T21:03:45.267Z,11.12
2018-01-27T21:06:12.760Z,9.98
2018-01-27T21:08:40.635Z,10.40
2018-01-27T21:11:08.519Z,9.65
2018-01-27T21:13:36.396Z,10.00
2018-01-27T21:16:04.296Z,10.43
2018-01-27T21:18:31.832Z,9.27
2018-01-27T21:20:59.816Z,10.65
2018-01-27T21:23:27.793Z,9.10
2018-01-27T21:25:55.284Z,8.52
2018-01-27T21:28:22.759Z,8.40
2018-01-27T21:30:50.259Z,9.52
2018-01-27T21:33:17.741Z,9.50
2018-01-27T21:35:45.224Z,9.13
2018-01-27T21:38:12.723Z,8.25
2018-01-27T21:40:40.596Z,8.88
2018-01-27T21:43:08.569Z,9.35
2018-01-27T21:45:36.461Z,9.73
2018-01-27T21:48:04.376Z,10.00
2018-01-27T21:50:31.903Z,9.23
2018-01-27T21:52:59.400Z,9.27
2018-01-27T21:55:26.949Z,9.18
2018-01-27T21:57:54.555Z,9.10
2018-01-27T22:00:22.036Z,8.73
2018-01-27T22:02:49.531Z,9.60
2018-01-27T22:05:17.023Z,11.25
2018-01-27T22:07:44.528Z,8.68
2018-01-27T22:10:12.066Z,9.60
2018-01-27T22:12:39.643Z,9.18
2018-01-27T22:15:07.157Z,9.70
2018-01-27T22:17:34.658Z,8.75
2018-01-27T22:20:02.148Z,9.45
2018-01-27T22:22:29.732Z,8.80
2018-01-27T22:24:57.216Z,9.23
2018-01-27T22:27:25.104Z,9.32
2018-01-27T22:29:52.579Z,9.75
2018-01-27T22:32:20.107Z,10.60
2018-01-27T22:34:47.588Z,9.05
2018-01-27T22:37:15.091Z,8.98
2018-01-27T22:39:42.573Z,8.27
2018-01-27T22:42:10.066Z,9.23
2018-01-27T22:44:37.539Z,9.75
2018-01-27T22:47:05.039Z,8.85
2018-01-27T22:49:32.519Z,9.43
2018-01-27T22:52:00.411Z,9.32
2018-01-27T22:54:28.289Z,8.07
2018-01-27T22:56:56.189Z,9.48
2018-01-27T22:59:23.730Z,8.77
2018-01-27T23:01:51.599Z,8.43
2018-01-27T23:04:19.090Z,8.82
2018-01-27T23:06:46.963Z,8.98
2018-01-27T23:09:14.856Z,8.90
2018-01-27T23:11:42.815Z,9.68
2018-01-27T23:14:10.314Z,8.30
2018-01-27T23:16:37.796Z,8.77
2018-01-27T23:19:05.291Z,8.25
2018-01-27T23:21:32.771Z,8.82
2018-01-27T23:24:00.262Z,9.55
2018-01-27T23:26:27.840Z,7.87
2018-01-27T23:28:55.418Z,8.70
2018-01-27T23:31:23.387Z,8.15
2018-01-27T23:33:50.890Z,7.12
2018-01-27T23:36:18.372Z,7.43
2018-01-27T23:38:45.867Z,8.90
2018-01-27T23:41:13.348Z,7.03
2018-01-27T23:43:40.849Z,6.93
2018-01-27T23:46:08.724Z,8.15
2018-01-27T23:48:36.215Z,6.60
2018-01-27T23:51:04.096Z,7.20
2018-01-27T23:53:31.650Z,7.40
2018-01-27T23:55:59.223Z,5.85
2018-01-27T23:58:27.122Z,7.07
